createdAt,value
2023-05-09T00:00:42.862Z,8.34
2023-05-09T00:03:47.944Z,8.28
2023-05-09T00:06:53.219Z,8.27
2023-05-09T00:09:59.906Z,8.10
2023-05-09T00:13:05.250Z,8.15
2023-05-09T00:16:13.920Z,8.15
2023-05-09T00:19:19.123Z,8.11
2023-05-09T00:22:24.152Z,8.06
2023-05-09T00:25:30.617Z,8.00
2023-05-09T00:28:35.693Z,8.00
2023-05-09T00:31:40.918Z,7.92
2023-05-09T00:34:46.052Z,7.89
2023-05-09T00:37:51.104Z,7.90
2023-05-09T00:40:57.620Z,7.83
2023-05-09T00:44:02.770Z,7.77
2023-05-09T00:47:08.184Z,7.66
2023-05-09T00:50:16.236Z,7.76
2023-05-09T00:53:21.382Z,7.81
2023-05-09T00:56:28.086Z,7.81
2023-05-09T00:59:33.134Z,7.91
2023-05-09T01:02:49.801Z,7.86
2023-05-09T01:05:59.966Z,7.81
2023-05-09T01:09:07.648Z,7.91
2023-05-09T01:12:18.173Z,7.80
2023-05-09T01:15:29.798Z,7.78
2023-05-09T01:18:41.857Z,7.85
2023-05-09T01:21:50.036Z,7.85
2023-05-09T01:25:29.704Z,7.76
2023-05-09T01:28:51.878Z,7.63
2023-05-09T01:31:59.295Z,7.63
2023-05-09T01:35:06.079Z,7.66
2023-05-09T01:38:15.808Z,7.53
2023-05-09T01:41:24.521Z,7.60
2023-05-09T01:44:32.573Z,7.47
2023-05-09T01:47:39.716Z,7.51
2023-05-09T01:50:46.238Z,7.54
2023-05-09T01:53:52.764Z,7.41
2023-05-09T01:56:57.930Z,7.40
2023-05-09T02:00:04.034Z,7.30
2023-05-09T02:03:19.371Z,7.38
2023-05-09T02:06:25.495Z,7.35
2023-05-09T02:09:30.689Z,7.41
2023-05-09T02:12:36.476Z,7.32
2023-05-09T02:15:42.076Z,7.27
2023-05-09T02:18:48.710Z,7.33
2023-05-09T02:21:53.759Z,7.22
2023-05-09T02:25:00.583Z,7.28
2023-05-09T02:28:05.724Z,7.23
2023-05-09T02:31:12.491Z,7.16
2023-05-09T02:34:19.093Z,7.19
2023-05-09T02:37:24.469Z,7.22
2023-05-09T02:40:30.867Z,7.21
2023-05-09T02:43:36.158Z,7.25
2023-05-09T02:46:41.150Z,7.19
2023-05-09T02:49:47.969Z,7.23
2023-05-09T02:52:54.175Z,7.13
2023-05-09T02:55:59.481Z,7.23
2023-05-09T02:59:04.536Z,7.31
2023-05-09T03:02:11.770Z,7.27
2023-05-09T03:05:18.974Z,7.28
2023-05-09T03:08:24.214Z,7.30
2023-05-09T03:11:29.656Z,7.24
2023-05-09T03:14:35.135Z,7.31
2023-05-09T03:17:41.248Z,7.21
2023-05-09T03:20:47.960Z,7.20
2023-05-09T03:23:53.256Z,7.26
2023-05-09T03:26:58.575Z,7.31
2023-05-09T03:30:04.010Z,7.33
2023-05-09T03:33:09.963Z,7.34
2023-05-09T03:36:17.458Z,7.33
2023-05-09T03:39:22.720Z,7.39
2023-05-09T03:42:32.648Z,7.41
2023-05-09T03:45:40.576Z,7.49
2023-05-09T03:48:47.880Z,7.54
2023-05-09T03:51:54.584Z,7.57
2023-05-09T03:54:59.967Z,7.68
2023-05-09T03:58:08.494Z,7.68
2023-05-09T04:01:17.946Z,7.79
2023-05-09T04:04:23.847Z,7.84
2023-05-09T04:07:30.971Z,7.88
2023-05-09T04:10:36.901Z,7.89
2023-05-09T04:13:42.967Z,8.00
2023-05-09T04:17:04.274Z,8.10
2023-05-09T04:20:11.557Z,8.19
2023-05-09T04:23:18.608Z,8.23
2023-05-09T04:26:24.785Z,8.36
2023-05-09T04:29:32.970Z,8.46
2023-05-09T04:32:39.000Z,8.56
2023-05-09T04:35:44.554Z,8.63
2023-05-09T04:38:51.200Z,8.77
2023-05-09T04:42:01.233Z,8.97
2023-05-09T04:45:07.392Z,8.92
2023-05-09T04:48:14.456Z,8.99
2023-05-09T04:51:19.815Z,9.19
2023-05-09T04:54:26.941Z,9.26
2023-05-09T04:57:32.784Z,9.41
2023-05-09T05:00:38.145Z,9.43
2023-05-09T05:03:45.422Z,9.47
2023-05-09T05:06:50.537Z,9.52
2023-05-09T05:09:57.153Z,9.72
2023-05-09T05:13:03.170Z,9.88
2023-05-09T05:16:08.571Z,9.95
2023-05-09T05:19:14.319Z,10.05
2023-05-09T05:22:20.966Z,10.22
2023-05-09T05:25:27.724Z,10.14
2023-05-09T05:28:34.012Z,10.33
2023-05-09T05:31:39.288Z,10.48
2023-05-09T05:34:44.430Z,10.47
2023-05-09T05:37:49.779Z,10.57
2023-05-09T05:40:57.114Z,10.66
2023-05-09T05:44:03.707Z,10.73
2023-05-09T05:47:09.148Z,10.91
2023-05-09T05:50:15.657Z,11.00
2023-05-09T05:53:21.354Z,11.25
2023-05-09T05:56:30.666Z,11.29
2023-05-09T05:59:36.815Z,11.49
2023-05-09T06:02:45.366Z,11.65
2023-05-09T06:05:58.008Z,11.87
2023-05-09T06:09:04.478Z,11.96
2023-05-09T06:12:11.965Z,12.24
2023-05-09T06:15:17.836Z,12.44
2023-05-09T06:18:25.645Z,12.64
2023-05-09T06:21:30.766Z,12.79
2023-05-09T06:24:36.583Z,12.85
2023-05-09T06:27:44.780Z,13.06
2023-05-09T06:30:49.909Z,13.11
2023-05-09T06:33:55.221Z,13.28
2023-05-09T06:37:00.407Z,13.38
2023-05-09T06:40:06.580Z,13.54
2023-05-09T06:43:14.181Z,13.64
2023-05-09T06:46:19.401Z,13.86
2023-05-09T06:49:24.627Z,13.91
2023-05-09T06:52:29.841Z,13.90
2023-05-09T06:55:34.988Z,13.94
2023-05-09T06:58:41.708Z,14.02
2023-05-09T07:01:47.374Z,14.12
2023-05-09T07:04:52.754Z,14.22
2023-05-09T07:07:57.880Z,14.38
2023-05-09T07:11:02.965Z,14.48
2023-05-09T07:14:09.476Z,14.49
2023-05-09T07:17:22.904Z,14.65
2023-05-09T07:20:28.911Z,14.75
2023-05-09T07:23:34.094Z,14.85
2023-05-09T07:26:39.397Z,14.98
2023-05-09T07:29:46.168Z,14.94
2023-05-09T07:32:51.946Z,15.11
2023-05-09T07:35:57.197Z,15.05
2023-05-09T07:39:02.297Z,15.03
2023-05-09T07:42:08.427Z,15.04
2023-05-09T07:45:15.559Z,15.15
2023-05-09T07:48:20.992Z,15.29
2023-05-09T07:51:26.579Z,15.32
2023-05-09T07:54:31.815Z,15.34
2023-05-09T07:57:36.864Z,15.36
2023-05-09T08:00:43.567Z,15.36
2023-05-09T08:03:48.870Z,15.35
2023-05-09T08:06:54.216Z,15.41
2023-05-09T08:09:59.413Z,15.40
2023-05-09T08:13:04.554Z,15.38
2023-05-09T08:16:13.766Z,15.50
2023-05-09T08:19:21.135Z,15.44
2023-05-09T08:22:26.318Z,15.50
2023-05-09T08:25:34.009Z,15.42
2023-05-09T08:28:39.392Z,15.55
2023-05-09T08:31:46.303Z,15.60
2023-05-09T08:34:51.596Z,15.67
2023-05-09T08:37:56.959Z,15.73
2023-05-09T08:41:03.109Z,15.73
2023-05-09T08:44:08.630Z,15.72
2023-05-09T08:47:15.564Z,15.84
2023-05-09T08:50:20.806Z,15.92
2023-05-09T08:53:26.838Z,15.91
2023-05-09T08:56:32.661Z,15.96
2023-05-09T08:59:38.324Z,15.94
2023-05-09T09:02:45.054Z,16.01
2023-05-09T09:05:50.610Z,16.08
2023-05-09T09:08:57.297Z,16.18
2023-05-09T09:12:03.534Z,16.19
2023-05-09T09:15:12.316Z,16.14
2023-05-09T09:18:24.180Z,16.29
2023-05-09T09:21:29.316Z,16.32
2023-05-09T09:24:34.380Z,16.34
2023-05-09T09:27:39.421Z,16.31
2023-05-09T09:30:49.131Z,16.23
2023-05-09T09:34:01.447Z,16.32
2023-05-09T09:37:09.255Z,16.40
2023-05-09T09:40:17.057Z,16.31
2023-05-09T09:43:27.920Z,16.51
2023-05-09T09:46:43.904Z,16.57
2023-05-09T09:49:54.251Z,16.70
2023-05-09T09:53:00.563Z,16.68
2023-05-09T09:56:05.660Z,16.83
2023-05-09T09:59:14.111Z,16.77
2023-05-09T10:02:25.944Z,16.85
2023-05-09T10:05:34.544Z,16.86
2023-05-09T10:08:39.744Z,16.93
2023-05-09T10:11:45.019Z,16.93
2023-05-09T10:14:50.938Z,16.90
2023-05-09T10:17:58.314Z,17.05
2023-05-09T10:21:05.440Z,17.15
2023-05-09T10:24:12.054Z,17.24
2023-05-09T10:27:19.819Z,17.32
2023-05-09T10:30:30.293Z,17.42
2023-05-09T10:33:44.060Z,17.52
2023-05-09T10:36:50.963Z,17.59
2023-05-09T10:39:56.611Z,17.47
2023-05-09T10:43:01.644Z,17.56
2023-05-09T10:46:07.280Z,17.54
2023-05-09T10:49:12.766Z,17.58
2023-05-09T10:52:19.446Z,17.64
2023-05-09T10:55:24.552Z,17.64
2023-05-09T10:58:30.576Z,17.85
2023-05-09T11:01:38.015Z,17.78
2023-05-09T11:04:44.318Z,17.71
2023-05-09T11:08:20.763Z,17.75
2023-05-09T11:11:26.974Z,17.73
2023-05-09T11:14:39.967Z,17.59
2023-05-09T11:17:45.128Z,17.73
2023-05-09T11:20:51.479Z,17.90
2023-05-09T11:23:57.996Z,17.89
2023-05-09T11:27:04.897Z,18.02
2023-05-09T11:30:11.371Z,18.08
2023-05-09T11:33:30.300Z,18.07
2023-05-09T11:36:37.255Z,18.00
2023-05-09T11:40:00.245Z,17.98
2023-05-09T11:43:05.276Z,18.02
2023-05-09T11:46:10.571Z,18.00
2023-05-09T11:49:16.007Z,18.10
2023-05-09T11:52:22.070Z,18.03
2023-05-09T11:55:30.327Z,17.98
2023-05-09T11:58:35.733Z,18.04
2023-05-09T12:01:40.926Z,18.01
2023-05-09T12:04:46.269Z,17.95
2023-05-09T12:07:52.787Z,17.92
2023-05-09T12:11:09.955Z,17.91
2023-05-09T12:14:29.329Z,17.82
2023-05-09T12:17:34.807Z,17.89
2023-05-09T12:20:44.179Z,18.00
2023-05-09T12:23:53.399Z,18.09
2023-05-09T12:27:00.867Z,18.21
2023-05-09T12:30:08.678Z,18.32
2023-05-09T12:33:13.882Z,18.32
2023-05-09T12:36:19.115Z,18.49
2023-05-09T12:39:24.832Z,18.38
2023-05-09T12:42:31.770Z,18.29
2023-05-09T12:45:37.722Z,18.29
2023-05-09T12:48:44.020Z,18.46
2023-05-09T12:51:51.256Z,18.30
2023-05-09T12:54:56.669Z,18.42
2023-05-09T12:58:04.461Z,18.29
2023-05-09T13:01:11.612Z,18.48
2023-05-09T13:04:17.373Z,18.35
2023-05-09T13:07:22.863Z,18.43
2023-05-09T13:10:29.012Z,18.35
2023-05-09T13:13:35.435Z,18.38
2023-05-09T13:16:41.269Z,18.52
2023-05-09T13:19:46.591Z,18.69
2023-05-09T13:22:51.690Z,18.61
2023-05-09T13:25:56.878Z,18.71
2023-05-09T13:29:03.406Z,18.73
2023-05-09T13:32:08.874Z,18.67
2023-05-09T13:35:14.222Z,18.87
2023-05-09T13:38:19.425Z,18.82
2023-05-09T13:41:24.714Z,18.67
2023-05-09T13:44:32.173Z,18.70
2023-05-09T13:47:38.730Z,18.86
2023-05-09T13:50:43.818Z,19.13
2023-05-09T13:53:49.217Z,19.12
2023-05-09T13:56:54.538Z,19.29
2023-05-09T14:00:01.276Z,19.86
2023-05-09T14:03:06.740Z,20.32
2023-05-09T14:06:14.780Z,19.75
2023-05-09T14:09:22.270Z,21.20
2023-05-09T14:12:27.378Z,21.35
2023-05-09T14:15:35.847Z,22.09
2023-05-09T14:18:41.281Z,21.22
2023-05-09T14:21:48.124Z,19.70
2023-05-09T14:24:54.191Z,19.05
2023-05-09T14:28:00.297Z,18.99
2023-05-09T14:31:07.023Z,19.19
2023-05-09T14:34:14.166Z,18.95
2023-05-09T14:37:18.957Z,18.98
2023-05-09T14:40:24.208Z,18.93
2023-05-09T14:43:29.143Z,18.84
2023-05-09T14:46:37.084Z,18.87
2023-05-09T14:49:42.332Z,18.69
2023-05-09T14:52:47.796Z,18.38
2023-05-09T14:55:53.108Z,18.21
2023-05-09T14:58:59.121Z,18.14
2023-05-09T15:02:05.628Z,17.96
2023-05-09T15:05:13.971Z,17.85
2023-05-09T15:08:19.049Z,17.56
2023-05-09T15:11:25.244Z,17.49
2023-05-09T15:14:33.553Z,17.64
2023-05-09T15:17:40.093Z,17.57
2023-05-09T15:20:45.448Z,17.40
2023-05-09T15:23:50.765Z,17.29
2023-05-09T15:26:56.134Z,17.15
2023-05-09T15:30:01.627Z,17.15
2023-05-09T15:33:08.511Z,17.21
2023-05-09T15:36:13.904Z,16.99
2023-05-09T15:39:19.068Z,16.88
2023-05-09T15:42:25.371Z,17.13
2023-05-09T15:45:30.659Z,16.99
2023-05-09T15:48:38.483Z,16.92
2023-05-09T15:51:43.549Z,16.98
2023-05-09T15:54:48.757Z,17.05
2023-05-09T15:57:53.848Z,16.98
2023-05-09T16:00:59.105Z,16.78
2023-05-09T16:04:06.131Z,16.80
2023-05-09T16:07:12.327Z,16.70
2023-05-09T16:10:17.791Z,16.70
2023-05-09T16:13:23.934Z,16.53
2023-05-09T16:16:29.254Z,16.56
2023-05-09T16:19:36.549Z,16.62
2023-05-09T16:22:41.795Z,16.57
2023-05-09T16:25:49.810Z,16.54
2023-05-09T16:28:54.976Z,16.54
2023-05-09T16:32:00.141Z,16.36
2023-05-09T16:35:07.833Z,16.24
2023-05-09T16:38:14.279Z,16.39
2023-05-09T16:41:19.235Z,16.30
2023-05-09T16:44:25.223Z,16.23
2023-05-09T16:47:30.314Z,16.17
2023-05-09T16:50:38.153Z,16.10
2023-05-09T16:53:43.517Z,15.91
2023-05-09T16:56:48.575Z,15.92
2023-05-09T16:59:54.412Z,15.74
2023-05-09T17:02:59.655Z,15.76
2023-05-09T17:06:06.368Z,15.77
2023-05-09T17:09:11.430Z,15.69
2023-05-09T17:12:18.353Z,15.49
2023-05-09T17:15:24.001Z,15.60
2023-05-09T17:18:36.494Z,15.48
2023-05-09T17:21:44.689Z,15.32
2023-05-09T17:24:50.045Z,15.34
2023-05-09T17:27:55.385Z,15.30
2023-05-09T17:31:00.685Z,15.14
2023-05-09T17:34:05.914Z,15.27
2023-05-09T17:37:13.828Z,15.07
2023-05-09T17:40:19.040Z,15.01
2023-05-09T17:43:24.275Z,14.98
2023-05-09T17:46:29.471Z,14.98
2023-05-09T17:49:34.700Z,15.03
2023-05-09T17:52:41.398Z,14.90
2023-05-09T17:55:46.479Z,14.79
2023-05-09T17:58:55.150Z,14.76
2023-05-09T18:02:00.879Z,14.70
2023-05-09T18:05:06.864Z,14.75
2023-05-09T18:08:16.130Z,14.50
2023-05-09T18:11:22.630Z,14.36
2023-05-09T18:14:28.554Z,14.23
2023-05-09T18:17:33.993Z,14.13
2023-05-09T18:20:39.134Z,14.16
2023-05-09T18:23:45.739Z,14.12
2023-05-09T18:26:51.578Z,14.01
2023-05-09T18:29:56.754Z,13.90
2023-05-09T18:33:02.598Z,13.72
2023-05-09T18:36:08.978Z,13.73
2023-05-09T18:39:15.969Z,13.75
2023-05-09T18:42:21.231Z,13.68
2023-05-09T18:45:26.400Z,13.56
2023-05-09T18:48:31.637Z,13.51
2023-05-09T18:51:37.233Z,13.46
2023-05-09T18:54:43.918Z,13.37
2023-05-09T18:57:49.389Z,13.36
2023-05-09T19:00:54.946Z,13.32
2023-05-09T19:04:01.861Z,13.31
2023-05-09T19:07:07.889Z,13.21
2023-05-09T19:10:17.994Z,13.15
2023-05-09T19:13:23.345Z,13.16
2023-05-09T19:16:28.462Z,13.07
2023-05-09T19:19:34.498Z,13.14
2023-05-09T19:22:41.424Z,13.02
2023-05-09T19:25:49.950Z,12.94
2023-05-09T19:28:55.552Z,12.83
2023-05-09T19:32:01.573Z,12.78
2023-05-09T19:35:07.218Z,12.77
2023-05-09T19:38:13.155Z,12.80
2023-05-09T19:41:19.660Z,12.77
2023-05-09T19:44:25.315Z,12.69
2023-05-09T19:47:30.545Z,12.57
2023-05-09T19:50:36.073Z,12.58
2023-05-09T19:53:41.762Z,12.51
2023-05-09T19:56:48.474Z,12.50
2023-05-09T19:59:55.697Z,12.47
2023-05-09T20:03:04.067Z,12.43
2023-05-09T20:06:11.230Z,12.40
2023-05-09T20:09:20.885Z,12.42
2023-05-09T20:12:29.896Z,12.35
2023-05-09T20:15:35.819Z,12.35
2023-05-09T20:18:41.156Z,12.23
2023-05-09T20:21:46.477Z,12.17
2023-05-09T20:24:51.819Z,12.14
2023-05-09T20:27:58.861Z,12.20
2023-05-09T20:31:04.722Z,12.18
2023-05-09T20:34:16.035Z,12.17
2023-05-09T20:37:21.386Z,12.05
2023-05-09T20:40:26.735Z,11.97
2023-05-09T20:43:33.685Z,11.86
2023-05-09T20:46:40.696Z,11.87
2023-05-09T20:49:46.167Z,11.91
2023-05-09T20:52:51.200Z,12.01
2023-05-09T20:55:56.700Z,11.86
2023-05-09T20:59:04.203Z,11.85
2023-05-09T21:02:12.175Z,11.76
2023-05-09T21:05:17.706Z,11.86
2023-05-09T21:08:24.262Z,11.72
2023-05-09T21:11:29.664Z,11.76
2023-05-09T21:14:37.310Z,11.74
2023-05-09T21:17:43.050Z,11.68
2023-05-09T21:20:48.306Z,11.77
2023-05-09T21:23:53.647Z,11.61
2023-05-09T21:26:58.920Z,11.67
2023-05-09T21:30:06.267Z,11.67
2023-05-09T21:33:13.582Z,11.58
2023-05-09T21:36:19.850Z,11.68
2023-05-09T21:39:25.513Z,11.57
2023-05-09T21:42:30.830Z,11.53
2023-05-09T21:45:37.380Z,11.50
2023-05-09T21:48:45.696Z,11.38
2023-05-09T21:51:50.898Z,11.38
2023-05-09T21:54:56.201Z,11.52
2023-05-09T21:58:01.308Z,11.45
2023-05-09T22:01:08.024Z,11.44
2023-05-09T22:04:16.179Z,11.35
2023-05-09T22:07:21.465Z,11.32
2023-05-09T22:10:27.452Z,11.24
2023-05-09T22:13:32.629Z,11.33
2023-05-09T22:16:39.638Z,11.12
2023-05-09T22:19:45.757Z,11.22
2023-05-09T22:22:50.895Z,11.09
2023-05-09T22:25:56.256Z,11.04
2023-05-09T22:29:01.545Z,10.97
2023-05-09T22:32:08.797Z,11.02
2023-05-09T22:35:14.526Z,11.00
2023-05-09T22:38:20.829Z,10.92
2023-05-09T22:41:25.585Z,10.95
2023-05-09T22:44:30.698Z,10.90
2023-05-09T22:47:39.545Z,10.93
2023-05-09T22:50:46.861Z,10.92
2023-05-09T22:53:53.284Z,10.98
2023-05-09T22:56:58.501Z,10.89
2023-05-09T23:00:04.330Z,10.84
2023-05-09T23:03:13.229Z,10.88
2023-05-09T23:06:18.434Z,10.80
2023-05-09T23:09:23.691Z,10.80
2023-05-09T23:12:29.017Z,10.82
2023-05-09T23:15:34.568Z,10.73
2023-05-09T23:18:41.005Z,10.66
2023-05-09T23:21:46.498Z,10.71
2023-05-09T23:24:51.251Z,10.56
2023-05-09T23:27:56.420Z,10.64
2023-05-09T23:31:01.564Z,10.57
2023-05-09T23:34:08.227Z,10.60
2023-05-09T23:37:13.881Z,10.51
2023-05-09T23:40:19.214Z,10.65
2023-05-09T23:43:24.065Z,10.52
2023-05-09T23:46:29.383Z,10.50
2023-05-09T23:49:36.005Z,10.50
2023-05-09T23:52:41.507Z,10.41
2023-05-09T23:55:46.562Z,10.33
2023-05-09T23:58:51.622Z,10.37
